Time;durP1;ratioP1;P1;durP2;ratioP2;P2;SDS_P1;SDS_P2;PMS_P1;PMS_P2;Temp;Humidity;BMP_temperature;BMP_pressure;BME280_temperature;BME280_humidity;BME280_pressure;Samples;Min_cycle;Max_cycle;Signal;HPM_P1;HPM_P2
2022/08/16 00:02:51;;;;;;;8.30;5.18;;;;;;;23.50;55.60;98854.81;4359159;32;35082;-75
2022/08/16 00:05:37;;;;;;;8.73;5.70;;;;;;;24.40;52.64;98863.63;4359529;32;35153;-76
2022/08/16 00:08:33;;;;;;;7.45;4.95;;;;;;;25.28;50.08;98867.41;4359323;32;34662;-76
2022/08/16 00:11:22;;;;;;;8.82;4.85;;;;;;;24.95;51.14;98869.97;4359360;32;34323;-76
2022/08/16 00:14:12;;;;;;;11.43;5.85;;;;;;;25.06;51.24;98864.97;4359252;32;35067;-76
2022/08/16 00:16:59;;;;;;;10.93;5.72;;;;;;;25.18;50.75;98874.78;4333244;33;34597;-76
2022/08/16 00:20:07;;;;;;;9.05;5.12;;;;;;;24.74;52.00;98873.16;4344463;33;33780;-76
2022/08/16 00:22:57;;;;;;;12.15;5.65;;;;;;;24.85;52.08;98874.53;4344403;33;35645;-76
2022/08/16 00:25:44;;;;;;;11.85;5.68;;;;;;;24.16;54.26;98876.78;4344206;33;35002;-76
2022/08/16 00:28:51;;;;;;;9.02;5.65;;;;;;;24.90;52.44;98887.25;4342655;32;34447;-76
2022/08/16 00:31:40;;;;;;;14.32;6.12;;;;;;;25.02;51.91;98877.47;4352454;32;35089;-76
2022/08/16 00:34:46;;;;;;;8.65;5.78;;;;;;;24.47;53.70;98876.75;4344209;33;35561;-76
2022/08/16 00:37:39;;;;;;;9.55;5.18;;;;;;;24.69;53.12;98877.22;4344195;33;35149;-76
2022/08/16 00:40:51;;;;;;;11.68;5.53;;;;;;;24.72;53.04;98869.97;4344166;33;34908;-76
2022/08/16 00:43:39;;;;;;;9.27;5.68;;;;;;;24.88;52.31;98881.31;4344306;33;36699;-76
2022/08/16 00:46:36;;;;;;;9.50;5.85;;;;;;;24.79;52.98;98881.03;4344041;33;34259;-76
2022/08/16 00:49:38;;;;;;;8.90;5.55;;;;;;;24.60;53.65;98880.56;4343502;33;35608;-76
2022/08/16 00:52:30;;;;;;;10.10;5.40;;;;;;;23.84;56.17;98884.81;4344222;33;34332;-76
2022/08/16 00:55:17;;;;;;;10.07;5.15;;;;;;;24.28;54.74;98885.81;4344287;33;34383;-76
2022/08/16 00:58:04;;;;;;;9.18;5.47;;;;;;;24.36;54.24;98882.50;4343094;33;34626;-76
2022/08/16 01:01:02;;;;;;;10.38;5.20;;;;;;;24.26;54.53;98893.84;4344181;33;35129;-76
2022/08/16 01:03:54;;;;;;;8.90;5.20;;;;;;;23.71;56.31;98890.97;4344292;33;34450;-76
2022/08/16 01:06:40;;;;;;;9.63;5.35;;;;;;;23.64;57.14;98893.78;4342792;33;35064;-76
2022/08/16 01:09:46;;;;;;;7.97;5.50;;;;;;;23.27;56.97;98895.41;4343846;33;34660;-76
2022/08/16 01:12:34;;;;;;;8.80;4.70;;;;;;;21.66;65.68;98890.88;4353231;32;34949;-76
2022/08/16 01:15:21;;;;;;;8.77;5.35;;;;;;;22.87;60.49;98892.16;4356950;32;34565;-76
2022/08/16 01:18:11;;;;;;;9.32;5.32;;;;;;;23.48;57.68;98897.19;4350815;32;35182;-75
2022/08/16 01:21:20;;;;;;;9.88;5.22;;;;;;;22.81;60.35;98893.00;4349495;32;35531;-76
2022/08/16 01:24:17;;;;;;;7.85;4.97;;;;;;;23.59;57.17;98888.66;4359155;32;34469;-76
2022/08/16 01:27:27;;;;;;;8.75;5.00;;;;;;;23.60;57.83;98893.06;4357781;32;34806;-76
2022/08/16 01:30:25;;;;;;;9.65;5.22;;;;;;;23.53;57.54;98887.53;4359001;32;35080;-76
2022/08/16 01:33:12;;;;;;;8.80;5.05;;;;;;;23.45;57.15;98894.41;4347454;32;34123;-76
2022/08/16 01:36:05;;;;;;;9.77;5.28;;;;;;;23.42;57.50;98895.25;4347543;32;34913;-76
2022/08/16 01:38:58;;;;;;;8.90;5.22;;;;;;;23.25;57.96;98892.25;4358571;32;34837;-76
2022/08/16 01:41:45;;;;;;;8.93;5.68;;;;;;;23.38;57.63;98892.50;4358884;32;35221;-76
2022/08/16 01:44:32;;;;;;;11.20;5.60;;;;;;;23.64;56.68;98893.78;4357551;32;34670;-76
2022/08/16 01:47:24;;;;;;;7.97;5.50;;;;;;;23.57;57.04;98891.09;4358530;32;35970;-76
2022/08/16 01:50:14;;;;;;;8.85;5.55;;;;;;;23.40;57.63;98897.69;4347764;32;35507;-76
2022/08/16 01:53:20;;;;;;;8.80;4.87;;;;;;;23.10;58.32;98893.56;4358625;32;35117;-76
2022/08/16 01:56:11;;;;;;;7.87;5.78;;;;;;;23.32;56.85;98897.75;4357835;32;34688;-76
2022/08/16 01:59:12;;;;;;;11.18;5.65;;;;;;;23.33;56.44;98885.34;4358507;32;35099;-76
2022/08/16 02:02:04;;;;;;;8.75;4.78;;;;;;;23.26;56.83;98887.44;4347559;32;35529;-76
2022/08/16 02:05:12;;;;;;;8.52;5.53;;;;;;;23.13;57.78;98887.16;4358333;32;35193;-76
2022/08/16 02:07:59;;;;;;;10.70;5.60;;;;;;;22.96;58.53;98890.91;4358588;32;34695;-76
2022/08/16 02:10:47;;;;;;;12.68;5.45;;;;;;;22.73;57.59;98899.84;4358567;32;35037;-76
2022/08/16 02:13:34;;;;;;;10.63;5.37;;;;;;;22.18;59.63;98890.25;4358303;32;34342;-76
2022/08/16 02:16:27;;;;;;;9.80;5.47;;;;;;;22.47;58.16;98893.66;4358333;32;35172;-76
2022/08/16 02:19:18;;;;;;;9.82;6.45;;;;;;;22.97;56.38;98895.28;4358540;32;35567;-76
2022/08/16 02:22:09;;;;;;;10.05;6.35;;;;;;;23.01;56.63;98884.88;4357295;32;35022;-76
2022/08/16 02:25:16;;;;;;;9.98;5.28;;;;;;;22.65;57.94;98882.34;4349499;32;35138;-76
2022/08/16 02:28:03;;;;;;;10.68;5.72;;;;;;;22.61;58.21;98881.59;4358090;32;33782;-76
2022/08/16 02:30:55;;;;;;;9.70;5.40;;;;;;;22.85;57.57;98877.00;4358273;32;34616;-76
2022/08/16 02:33:43;;;;;;;7.68;4.57;;;;;;;22.93;57.24;98883.31;4346842;32;35954;-76
2022/08/16 02:36:36;;;;;;;9.65;5.45;;;;;;;23.18;55.63;98883.91;4357257;32;36137;-76
2022/08/16 02:39:36;;;;;;;7.97;5.30;;;;;;;23.11;55.71;98884.78;4354185;32;34308;-76
2022/08/16 02:42:22;;;;;;;8.77;5.30;;;;;;;23.11;55.82;98884.00;4358332;32;35571;-76
2022/08/16 02:45:09;;;;;;;8.35;5.45;;;;;;;22.81;57.26;98881.84;4346778;32;34713;-76
2022/08/16 02:47:58;;;;;;;10.70;5.70;;;;;;;22.97;57.38;98884.09;4358017;32;35577;-76
2022/08/16 02:51:06;;;;;;;10.60;5.93;;;;;;;22.40;59.36;98874.97;4358007;32;34395;-76
2022/08/16 02:53:57;;;;;;;8.23;5.47;;;;;;;22.17;60.58;98874.66;4356871;32;35108;-76
2022/08/16 02:56:45;;;;;;;9.70;5.90;;;;;;;22.16;60.83;98878.66;4356955;32;34951;-76
2022/08/16 02:59:33;;;;;;;10.15;6.05;;;;;;;22.45;59.61;98870.94;4357750;32;35103;-76
2022/08/16 03:02:27;;;;;;;11.02;5.82;;;;;;;22.11;60.90;98881.88;4357810;32;34676;-76
2022/08/16 03:05:17;;;;;;;9.80;5.60;;;;;;;21.79;62.30;98886.41;4357890;32;35328;-76
2022/08/16 03:08:05;;;;;;;8.27;5.00;;;;;;;22.37;59.89;98880.56;4357781;32;35003;-76
2022/08/16 03:11:12;;;;;;;8.40;5.47;;;;;;;22.83;57.66;98877.44;4358083;32;35054;-76
2022/08/16 03:14:07;;;;;;;9.30;5.40;;;;;;;22.73;57.94;98888.69;4358494;32;34734;-76
2022/08/16 03:16:56;;;;;;;11.45;5.70;;;;;;;22.80;57.06;98878.25;4353483;32;34578;-76
2022/08/16 03:19:46;;;;;;;11.07;5.43;;;;;;;22.79;57.11;98878.66;4343732;33;36007;-76
2022/08/16 03:22:47;;;;;;;9.70;5.72;;;;;;;22.33;58.63;98886.16;4344848;33;34334;-76
2022/08/16 03:25:34;;;;;;;9.35;5.57;;;;;;;22.45;58.52;98888.50;4344609;33;35173;-76
2022/08/16 03:28:30;;;;;;;10.52;5.53;;;;;;;22.69;57.74;98894.31;4344662;33;34625;-76
2022/08/16 03:31:18;;;;;;;11.77;6.00;;;;;;;22.77;57.51;98901.41;4344750;33;35566;-76
2022/08/16 03:34:04;;;;;;;11.93;5.93;;;;;;;22.70;58.03;98898.66;4344433;33;35743;-76
2022/08/16 03:36:51;;;;;;;11.52;5.45;;;;;;;22.41;59.69;98909.25;4344610;33;34416;-76
2022/08/16 03:39:38;;;;;;;8.85;5.70;;;;;;;21.72;63.55;98907.97;4344641;33;35085;-76
2022/08/16 03:42:28;;;;;;;11.43;6.28;;;;;;;21.73;63.34;98918.72;4344472;33;36011;-76
2022/08/16 03:45:15;;;;;;;10.80;5.93;;;;;;;21.09;65.82;98922.41;4343481;33;35550;-76
2022/08/16 03:48:03;;;;;;;8.32;5.47;;;;;;;21.53;64.34;98929.53;4344521;33;34269;-76
2022/08/16 03:50:52;;;;;;;8.43;5.25;;;;;;;21.24;64.87;98922.41;4344596;33;34711;-76
2022/08/16 03:53:46;;;;;;;9.30;5.60;;;;;;;21.88;62.68;98922.22;4343125;33;35889;-76
2022/08/16 03:56:46;;;;;;;9.32;5.57;;;;;;;22.35;60.85;98920.06;4344630;33;35619;-76
2022/08/16 03:59:44;;;;;;;13.80;6.20;;;;;;;22.44;61.29;98928.75;4344171;33;34318;-76
2022/08/16 04:02:30;;;;;;;10.48;6.45;;;;;;;22.29;62.13;98927.25;4344354;33;34284;-76
2022/08/16 04:05:17;;;;;;;12.13;5.85;;;;;;;22.70;60.84;98931.38;4344510;33;35002;-76
2022/08/16 04:08:07;;;;;;;11.57;6.55;;;;;;;22.48;60.51;98928.72;4344363;33;34597;-76
2022/08/16 04:11:10;;;;;;;9.45;6.28;;;;;;;22.21;61.99;98934.09;4344529;33;35105;-76
2022/08/16 04:14:01;;;;;;;;;;;;;;;22.10;62.56;98933.31;4344571;33;34712;-76
2022/08/16 04:17:07;;;;;;;11.38;6.00;;;;;;;22.38;61.50;98932.41;4357348;32;36230;-76
2022/08/16 04:19:55;;;;;;;10.35;5.65;;;;;;;21.87;62.68;98934.59;4378916;32;34540;-76
2022/08/16 04:22:45;;;;;;;9.95;5.05;;;;;;;21.34;65.89;98935.50;4358451;32;34260;-76
2022/08/16 04:25:35;;;;;;;10.02;5.55;;;;;;;21.91;62.90;98938.16;4359206;32;34611;-76
2022/08/16 04:28:22;;;;;;;9.07;5.97;;;;;;;22.28;61.67;98938.81;4358926;32;35998;-76
2022/08/16 04:31:28;;;;;;;12.82;5.87;;;;;;;22.41;61.21;98935.16;4358997;32;34876;-76
2022/08/16 04:34:16;;;;;;;14.07;5.95;;;;;;;21.52;63.59;98936.31;4359126;32;34470;-76
2022/08/16 04:37:05;;;;;;;11.80;6.45;;;;;;;20.42;68.80;98948.16;4359099;32;35625;-76
2022/08/16 04:39:53;;;;;;;11.68;5.80;;;;;;;20.82;68.03;98940.69;4357987;32;33696;-76
2022/08/16 04:42:44;;;;;;;10.30;6.20;;;;;;;21.93;63.32;98935.75;4359158;32;34658;-76
2022/08/16 04:45:32;;;;;;;14.13;6.30;;;;;;;22.15;61.65;98947.63;4358954;32;33710;-76
2022/08/16 04:48:22;;;;;;;14.63;6.60;;;;;;;20.80;67.79;98957.00;4357406;32;35601;-76
2022/08/16 04:51:19;;;;;;;14.15;6.25;;;;;;;20.83;69.19;98956.22;4358833;32;34986;-76
2022/08/16 04:54:07;;;;;;;14.02;6.20;;;;;;;21.64;65.17;98954.59;4358884;32;34255;-76
2022/08/16 04:56:53;;;;;;;11.57;6.12;;;;;;;21.89;63.96;98950.94;4358918;32;34216;-76
2022/08/16 04:59:42;;;;;;;10.55;5.65;;;;;;;21.71;65.15;98950.97;4358692;32;35667;-76
2022/08/16 05:02:29;;;;;;;15.10;6.37;;;;;;;22.64;60.75;98945.00;4357959;32;34488;-76
2022/08/16 05:05:27;;;;;;;15.68;7.18;;;;;;;22.87;59.18;98952.81;4359024;32;35284;-76
2022/08/16 05:08:23;;;;;;;13.88;6.68;;;;;;;22.16;62.21;98959.59;4358673;32;34699;-76
2022/08/16 05:11:15;;;;;;;12.07;6.50;;;;;;;22.82;59.27;98954.03;4347978;32;35568;-76
2022/08/16 05:14:03;;;;;;;14.75;6.40;;;;;;;22.49;60.78;98958.25;4360233;32;35553;-76
2022/08/16 05:16:52;;;;;;;11.73;6.07;;;;;;;21.80;64.46;98970.88;4357912;32;35511;-76
2022/08/16 05:19:39;;;;;;;10.75;5.55;;;;;;;21.74;64.89;98978.06;4357640;32;35196;-76
2022/08/16 05:22:34;;;;;;;9.88;5.80;;;;;;;23.01;59.79;98979.87;4358818;32;35140;-76
2022/08/16 05:25:22;;;;;;;13.43;5.80;;;;;;;22.95;59.39;98987.06;4358784;32;34890;-76
2022/08/16 05:28:26;;;;;;;10.38;6.00;;;;;;;22.26;63.18;98980.31;4357673;32;34944;-76
2022/08/16 05:31:25;;;;;;;11.48;5.90;;;;;;;21.84;65.16;98990.38;4358680;32;34151;-76
2022/08/16 05:34:15;;;;;;;9.95;5.93;;;;;;;22.20;63.39;98982.72;4357098;32;35525;-76
2022/08/16 05:37:06;;;;;;;11.27;5.70;;;;;;;22.42;61.86;98986.97;4357588;32;35933;-76
2022/08/16 05:39:53;;;;;;;9.82;6.55;;;;;;;22.88;60.08;98985.09;4358823;32;34702;-76
2022/08/16 05:42:41;;;;;;;11.45;6.28;;;;;;;21.33;66.74;98987.66;4358539;32;34176;-76
2022/08/16 05:45:33;;;;;;;11.73;6.05;;;;;;;21.89;64.77;98987.97;4347875;32;34205;-76
2022/08/16 05:48:22;;;;;;;9.25;5.62;;;;;;;21.52;66.93;98989.25;4358493;32;34525;-76
2022/08/16 05:51:12;;;;;;;10.18;5.70;;;;;;;21.37;66.16;98986.87;4357474;32;34138;-76
2022/08/16 05:54:18;;;;;;;9.73;5.93;;;;;;;21.28;66.50;98990.81;4357906;32;35072;-76
2022/08/16 05:57:11;;;;;;;8.98;5.50;;;;;;;22.12;63.36;98990.28;4358295;32;35608;-76
2022/08/16 05:59:59;;;;;;;12.95;5.85;;;;;;;22.45;62.04;98983.41;4358455;32;35977;-76
2022/08/16 06:02:57;;;;;;;13.10;6.15;;;;;;;22.47;61.80;98985.78;4346770;32;35259;-77
2022/08/16 06:05:47;;;;;;;11.35;6.40;;;;;;;21.97;64.18;98986.75;4358404;32;34957;-76
2022/08/16 06:08:34;;;;;;;15.80;6.75;;;;;;;22.10;65.72;98991.91;4358531;32;34677;-76
2022/08/16 06:11:32;;;;;;;12.13;6.15;;;;;;;21.85;68.07;98984.41;4358533;32;34993;-76
2022/08/16 06:14:19;;;;;;;12.32;6.78;;;;;;;21.28;73.24;98987.25;4358446;32;34689;-76
2022/08/16 06:17:06;;;;;;;11.70;6.32;;;;;;;21.46;71.82;98985.28;4358291;32;35125;-76
2022/08/16 06:19:53;;;;;;;12.63;5.87;;;;;;;21.91;71.05;98980.00;4358408;32;35076;-76
2022/08/16 06:22:44;;;;;;;12.90;6.18;;;;;;;22.28;69.20;98969.50;4358443;32;35622;-77
2022/08/16 06:25:43;;;;;;;12.70;7.00;;;;;;;21.23;74.36;98984.84;4358219;32;34819;-77
2022/08/16 06:28:40;;;;;;;11.07;6.28;;;;;;;21.96;73.83;98967.62;4358203;32;34332;-76
2022/08/16 06:31:27;;;;;;;10.57;6.47;;;;;;;22.65;71.66;98969.72;4357385;32;34283;-77
2022/08/16 06:34:15;;;;;;;8.70;5.10;;;;;;;22.58;73.42;98963.38;4358374;32;34592;-77
2022/08/16 06:37:22;;;;;;;5.95;3.70;;;;;;;22.36;72.91;98963.50;4358246;32;35064;-77
2022/08/16 06:40:09;;;;;;;5.28;3.22;;;;;;;21.99;68.22;98952.88;4358204;32;34104;-81
2022/08/16 06:43:01;;;;;;;5.93;2.58;;;;;;;22.30;59.67;98948.38;4357735;32;34637;-79
2022/08/16 06:45:48;;;;;;;2.97;2.00;;;;;;;22.82;56.81;98945.66;4355142;32;34504;-80
2022/08/16 06:48:36;;;;;;;3.12;2.15;;;;;;;23.54;47.39;98925.47;4358094;32;34723;-78
2022/08/16 06:51:29;;;;;;;3.72;2.47;;;;;;;23.76;48.30;98940.84;4357148;32;34157;-76
2022/08/16 06:54:35;;;;;;;5.00;2.85;;;;;;;23.75;53.12;98922.47;4357133;32;34619;-76
2022/08/16 06:57:23;;;;;;;2.90;1.80;;;;;;;24.36;51.48;98937.69;4357834;32;34570;-77
2022/08/16 07:00:12;;;;;;;2.80;2.10;;;;;;;24.23;47.51;98934.66;4357901;32;34902;-77
2022/08/16 07:03:10;;;;;;;2.75;2.08;;;;;;;24.56;47.47;98947.03;4357849;32;34007;-77
2022/08/16 07:06:14;;;;;;;3.22;2.12;;;;;;;24.65;46.54;98947.28;4356784;32;34660;-77
2022/08/16 07:09:01;;;;;;;5.78;2.47;;;;;;;24.84;44.83;98950.59;4357803;32;36023;-77
2022/08/16 07:11:55;;;;;;;5.65;3.47;;;;;;;24.90;51.64;98974.13;4356809;32;35329;-78
2022/08/16 07:14:49;;;;;;;9.60;3.85;;;;;;;23.96;57.81;98970.97;4356496;32;35036;-78
2022/08/16 07:17:36;;;;;;;11.07;6.65;;;;;;;22.96;64.04;98983.09;4355521;32;34509;-78
2022/08/16 07:20:27;;;;;;;10.25;6.35;;;;;;;21.70;77.18;99002.37;4357781;32;35007;-78
2022/08/16 07:23:21;;;;;;;10.43;5.62;;;;;;;21.82;79.12;99001.94;4357328;32;34786;-78
2022/08/16 07:26:24;;;;;;;10.05;6.50;;;;;;;21.56;81.77;99009.53;4357539;32;34316;-78
2022/08/16 07:29:11;;;;;;;11.82;7.80;;;;;;;22.01;84.00;99009.84;4357368;32;34637;-78
2022/08/16 07:31:59;;;;;;;15.20;9.02;;;;;;;21.02;90.25;99013.50;4357637;32;35783;-78
2022/08/16 07:34:47;;;;;;;13.82;8.30;;;;;;;20.76;93.85;99021.03;4357607;32;34720;-78
2022/08/16 07:37:34;;;;;;;12.23;7.62;;;;;;;21.49;90.48;99012.34;4346050;32;34333;-77
2022/08/16 07:40:27;;;;;;;13.65;7.75;;;;;;;22.43;86.25;99019.28;4357287;32;34663;-78
2022/08/16 07:43:34;;;;;;;10.85;6.55;;;;;;;21.40;89.87;99019.50;4355917;32;34922;-78
2022/08/16 07:46:30;;;;;;;16.45;6.70;;;;;;;21.54;89.90;99022.28;4357375;32;34744;-77
2022/08/16 07:49:25;;;;;;;11.50;6.68;;;;;;;22.16;86.79;99032.91;4357253;32;34244;-77
2022/08/16 07:52:17;;;;;;;12.88;7.00;;;;;;;22.72;83.58;99019.13;4356956;32;34188;-77
2022/08/16 07:55:07;;;;;;;9.27;6.40;;;;;;;22.87;81.95;99015.03;4357188;32;34932;-77
2022/08/16 07:57:54;;;;;;;10.85;6.40;;;;;;;23.21;79.34;99022.81;4347044;32;34783;-77
2022/08/16 08:00:49;;;;;;;13.45;6.05;;;;;;;23.25;77.04;99023.59;4359187;32;34280;-77
2022/08/16 08:03:37;;;;;;;9.55;6.15;;;;;;;24.13;74.34;99020.34;4359329;32;34642;-77
2022/08/16 08:06:28;;;;;;;10.68;5.93;;;;;;;24.54;71.90;99019.47;4358599;32;33930;-77
2022/08/16 08:09:15;;;;;;;17.77;7.15;;;;;;;24.65;68.66;99022.91;4359396;32;35490;-77
2022/08/16 08:12:02;;;;;;;11.25;5.80;;;;;;;24.08;73.34;99023.63;4359449;32;36089;-77
2022/08/16 08:14:52;;;;;;;8.35;5.53;;;;;;;24.27;71.19;99029.78;4359255;32;34634;-77
2022/08/16 08:17:39;;;;;;;10.90;6.53;;;;;;;24.82;68.45;99032.28;4359217;32;35928;-77
2022/08/16 08:20:29;;;;;;;;;;;;;;;24.27;67.48;99032.59;4358316;32;35647;-77
2022/08/16 08:23:19;;;;;;;14.68;7.18;;;;;;;24.68;66.48;99030.47;4359405;32;34264;-77
2022/08/16 08:26:06;;;;;;;21.35;6.93;;;;;;;25.00;65.45;99031.22;4359148;32;34205;-77
2022/08/16 08:29:03;;;;;;;12.68;7.43;;;;;;;24.48;66.46;99035.16;4358919;32;34521;-77
2022/08/16 08:31:54;;;;;;;7.97;6.12;;;;;;;24.83;65.16;99041.47;4348219;32;36320;-77
2022/08/16 08:34:40;;;;;;;10.77;7.03;;;;;;;24.73;64.49;99040.41;4359257;32;33688;-76
2022/08/16 08:37:34;;;;;;;14.25;7.05;;;;;;;25.42;59.67;99043.81;4359038;32;35208;-77
2022/08/16 08:40:40;;;;;;;10.45;6.35;;;;;;;25.48;58.54;99041.31;4349741;32;34893;-76
2022/08/16 08:43:27;;;;;;;10.07;5.50;;;;;;;25.85;54.94;99034.66;4357853;32;34593;-77
2022/08/16 08:46:14;;;;;;;5.87;4.47;;;;;;;26.03;53.43;99035.09;4359156;32;35015;-77
2022/08/16 08:49:07;;;;;;;11.45;5.30;;;;;;;26.41;50.89;99029.16;4358747;32;35317;-77
2022/08/16 08:51:55;;;;;;;15.43;5.40;;;;;;;26.91;48.06;99028.06;4358792;32;34671;-77
2022/08/16 08:54:43;;;;;;;13.38;5.60;;;;;;;27.01;48.07;99025.44;4359065;32;34334;-77
2022/08/16 08:57:36;;;;;;;8.55;5.53;;;;;;;27.22;47.98;99022.16;4358947;32;34165;-77
2022/08/16 09:00:28;;;;;;;9.80;5.63;;;;;;;27.58;46.93;99021.28;4357887;32;34593;-77
2022/08/16 09:03:16;;;;;;;10.15;6.25;;;;;;;28.28;45.84;99013.34;4357693;32;34844;-78
2022/08/16 09:06:04;;;;;;;9.40;5.75;;;;;;;27.86;47.03;99014.09;4357760;32;34548;-77
2022/08/16 09:08:53;;;;;;;;;;;;;;;27.69;47.53;99020.97;4358659;32;34997;-77
2022/08/16 09:11:44;;;;;;;10.40;5.90;;;;;;;28.21;46.96;99023.59;4358925;32;35287;-77
2022/08/16 09:14:39;;;;;;;7.75;5.75;;;;;;;28.79;46.31;99016.28;4358805;32;34656;-77
2022/08/16 09:17:37;;;;;;;7.78;5.90;;;;;;;28.69;45.36;99016.19;4359016;32;35229;-78
2022/08/16 09:20:37;;;;;;;9.73;6.03;;;;;;;28.76;45.21;99011.56;4357390;32;34998;-78
2022/08/16 09:23:44;;;;;;;8.00;4.90;;;;;;;29.19;42.35;99007.38;4358924;32;35543;-77
2022/08/16 09:26:32;;;;;;;7.55;4.90;;;;;;;29.23;40.51;99002.41;4365974;32;35488;-77
2022/08/16 09:29:31;;;;;;;8.40;4.60;;;;;;;29.33;39.47;98992.81;4353300;32;34744;-78
2022/08/16 09:32:31;;;;;;;7.55;4.57;;;;;;;29.84;36.65;98984.22;4358765;32;34153;-78
2022/08/16 09:35:17;;;;;;;5.37;4.43;;;;;;;30.51;36.03;98985.00;4358742;32;35238;-78
2022/08/16 09:38:04;;;;;;;8.20;4.50;;;;;;;30.51;35.23;98976.50;4358593;32;35017;-79
2022/08/16 09:40:56;;;;;;;5.97;4.40;;;;;;;30.10;34.26;98993.34;4358839;32;35201;-78
2022/08/16 09:43:44;;;;;;;7.05;4.18;;;;;;;30.17;34.81;98990.28;4357614;32;34102;-78
2022/08/16 09:46:45;;;;;;;9.43;4.80;;;;;;;30.77;33.29;98980.75;4358646;32;34458;-78
2022/08/16 09:49:35;;;;;;;10.25;4.78;;;;;;;30.20;34.09;98991.41;4358436;32;35071;-79
2022/08/16 09:52:22;;;;;;;5.82;4.45;;;;;;;30.59;33.95;98977.81;4358056;32;34256;-78
2022/08/16 09:55:11;;;;;;;7.15;4.55;;;;;;;31.07;33.88;98984.78;4357223;32;34108;-78
2022/08/16 09:57:58;;;;;;;13.30;5.07;;;;;;;30.99;33.87;98982.72;4356317;32;34155;-79
2022/08/16 10:00:45;;;;;;;7.32;5.00;;;;;;;30.78;34.05;98981.53;4347180;32;34935;-78
2022/08/16 10:03:31;;;;;;;6.65;4.97;;;;;;;31.71;32.54;98972.81;4358556;32;34614;-78
2022/08/16 10:06:20;;;;;;;8.43;5.03;;;;;;;31.63;32.46;98971.56;4347023;32;33603;-78
2022/08/16 10:09:09;;;;;;;5.93;4.68;;;;;;;32.02;32.00;98966.22;4358492;32;36078;-78
2022/08/16 10:15:07;;;;;;;6.50;4.60;;;;;;;32.48;29.87;98963.31;4358156;32;35673;-78
2022/08/16 10:18:06;;;;;;;7.90;5.25;;;;;;;32.73;30.00;98964.97;4358570;32;34365;-78
2022/08/16 10:21:14;;;;;;;6.62;4.45;;;;;;;33.09;29.99;98963.22;4350777;32;34275;-78
2022/08/16 10:24:01;;;;;;;8.57;5.00;;;;;;;33.22;27.99;98969.47;4358368;32;35042;-78
2022/08/16 10:26:47;;;;;;;7.80;4.55;;;;;;;33.20;27.53;98960.62;4357455;32;34515;-78
2022/08/16 10:29:53;;;;;;;6.22;4.45;;;;;;;34.00;26.78;98964.59;4357876;32;35108;-79
2022/08/16 10:32:52;;;;;;;6.43;4.45;;;;;;;33.28;27.53;98961.06;4357029;32;35592;-78
2022/08/16 10:35:41;;;;;;;8.68;4.90;;;;;;;33.67;26.63;98958.28;4357143;32;35455;-78
2022/08/16 10:38:33;;;;;;;7.97;4.45;;;;;;;34.07;27.79;98959.84;4358262;32;35100;-79
2022/08/16 10:41:22;;;;;;;7.15;4.80;;;;;;;33.17;27.59;98955.16;4358238;32;34229;-78
2022/08/16 10:44:13;;;;;;;5.00;4.30;;;;;;;32.77;28.54;98961.94;4347623;32;34606;-79
2022/08/16 10:47:03;;;;;;;6.65;4.97;;;;;;;33.20;28.32;98951.34;4357041;32;34840;-79
2022/08/16 10:49:50;;;;;;;5.72;4.32;;;;;;;33.73;27.08;98968.50;4358808;32;35411;-78
2022/08/16 10:52:36;;;;;;;6.43;4.57;;;;;;;33.59;26.90;98963.56;4358091;32;34795;-78
2022/08/16 10:55:28;;;;;;;10.52;5.05;;;;;;;34.82;24.94;98959.34;4358024;32;35575;-78
2022/08/16 10:58:32;;;;;;;7.30;4.80;;;;;;;35.42;25.46;98954.25;4365443;32;34909;-79
2022/08/16 11:01:20;;;;;;;5.32;4.72;;;;;;;33.79;26.32;98960.09;4358151;32;34633;-79
2022/08/16 11:04:26;;;;;;;7.28;5.00;;;;;;;33.99;26.36;98948.06;4357961;32;35192;-79
2022/08/16 11:07:32;;;;;;;8.20;5.20;;;;;;;33.15;27.25;98942.22;4357951;32;35474;-79
2022/08/16 11:10:42;;;;;;;5.57;4.62;;;;;;;34.35;25.94;98940.44;4356314;32;36010;-79
2022/08/16 11:13:51;;;;;;;8.60;4.90;;;;;;;34.66;24.94;98945.62;4357389;32;35805;-78
2022/08/16 11:16:58;;;;;;;8.13;4.93;;;;;;;34.02;25.62;98955.59;4357760;32;35345;-79
2022/08/16 11:19:57;;;;;;;7.93;4.83;;;;;;;33.23;27.49;98947.53;4357663;32;35614;-78
2022/08/16 11:23:04;;;;;;;8.63;4.68;;;;;;;34.62;25.33;98936.53;4357805;32;34928;-80
2022/08/16 11:25:51;;;;;;;5.43;4.28;;;;;;;34.87;24.51;98935.88;4357615;32;34877;-78
2022/08/16 11:28:56;;;;;;;6.72;4.93;;;;;;;34.35;25.18;98937.59;4350353;32;35045;-79
2022/08/16 11:32:00;;;;;;;6.80;4.90;;;;;;;32.85;26.92;98951.84;4348021;32;35576;-78
2022/08/16 11:34:47;;;;;;;6.85;4.65;;;;;;;33.90;25.25;98954.63;4348198;32;35483;-80
2022/08/16 11:37:56;;;;;;;6.82;4.72;;;;;;;34.58;24.43;98961.53;4359727;32;34689;-79
2022/08/16 11:41:02;;;;;;;7.35;4.43;;;;;;;33.58;29.97;98970.50;4358801;32;34158;-81
2022/08/16 11:43:49;;;;;;;6.70;3.80;;;;;;;34.32;28.49;98967.00;4359524;32;35698;-78
2022/08/16 11:46:36;;;;;;;6.22;3.40;;;;;;;35.07;26.23;98962.84;4359329;32;34961;-78
2022/08/16 11:49:31;;;;;;;5.40;3.30;;;;;;;35.30;24.65;98941.16;4359047;32;35481;-79
2022/08/16 11:52:17;;;;;;;7.62;4.00;;;;;;;35.00;25.39;98974.59;4359439;32;33658;-78
2022/08/16 11:55:09;;;;;;;4.87;3.77;;;;;;;34.53;26.28;98962.22;4359001;32;35492;-79
2022/08/16 11:57:55;;;;;;;7.75;3.90;;;;;;;35.07;25.09;98960.00;4352597;32;35019;-77
2022/08/16 12:00:43;;;;;;;6.47;3.40;;;;;;;35.58;25.35;98967.94;4359409;32;34259;-78
2022/08/16 12:03:38;;;;;;;7.03;3.60;;;;;;;35.43;25.57;98967.19;4359392;32;34259;-78
2022/08/16 12:06:27;;;;;;;6.00;4.18;;;;;;;35.07;26.46;98957.16;4358899;32;34610;-79
2022/08/16 12:09:19;;;;;;;6.15;3.92;;;;;;;35.85;25.29;98953.72;4359235;32;34963;-79
2022/08/16 12:12:06;;;;;;;8.63;4.28;;;;;;;36.19;24.38;98958.50;4368441;32;34861;-78
2022/08/16 12:14:53;;;;;;;4.62;3.65;;;;;;;36.40;24.17;98959.25;4359157;32;33389;-78
2022/08/16 12:17:45;;;;;;;6.93;4.15;;;;;;;36.84;23.93;98960.91;4358558;32;34685;-79
2022/08/16 12:20:35;;;;;;;6.32;4.18;;;;;;;36.37;24.00;98954.53;4358074;32;34850;-79
2022/08/16 12:23:22;;;;;;;7.53;4.03;;;;;;;35.75;26.85;98951.06;4357933;32;35512;-78
2022/08/16 12:26:08;;;;;;;5.97;4.20;;;;;;;37.04;23.20;98940.03;4356357;32;34155;-78
2022/08/16 12:28:56;;;;;;;7.82;3.95;;;;;;;37.03;23.66;98941.31;4358522;32;34630;-79
2022/08/16 12:31:42;;;;;;;6.60;3.95;;;;;;;37.69;23.84;98939.31;4358838;32;35598;-79
2022/08/16 12:34:46;;;;;;;5.28;3.67;;;;;;;37.30;24.94;98939.13;4358908;32;34630;-79
2022/08/16 12:37:39;;;;;;;7.72;4.10;;;;;;;37.56;24.17;98947.56;4359245;32;34643;-82
2022/08/16 12:40:31;;;;;;;5.00;3.60;;;;;;;35.88;25.96;98958.44;4368208;32;35291;-80
2022/08/16 12:43:20;;;;;;;6.25;4.20;;;;;;;32.15;28.99;98971.72;4355023;32;35495;-80
2022/08/16 12:46:10;;;;;;;6.28;4.30;;;;;;;31.44;30.47;98978.47;4359039;32;34390;-79
2022/08/16 12:48:59;;;;;;;6.05;4.60;;;;;;;31.82;30.10;98975.19;4364358;32;35142;-79
2022/08/16 12:51:47;;;;;;;6.65;4.70;;;;;;;31.17;30.69;98977.13;4358876;32;34711;-78
2022/08/16 12:54:45;;;;;;;5.25;4.40;;;;;;;31.19;31.12;98985.91;4357950;32;35906;-79
2022/08/16 12:57:40;;;;;;;6.22;4.32;;;;;;;30.85;31.93;98979.22;4356934;32;35114;-79
2022/08/16 13:00:29;;;;;;;7.55;4.25;;;;;;;30.44;32.63;98975.53;4359076;32;35007;-78
2022/08/16 13:03:18;;;;;;;5.62;4.62;;;;;;;31.03;31.75;98960.75;4359096;32;34803;-79
2022/08/16 13:06:07;;;;;;;6.30;4.95;;;;;;;31.16;31.61;98964.22;4358727;32;34989;-78
2022/08/16 13:08:55;;;;;;;8.98;4.72;;;;;;;31.60;30.85;98964.00;4358848;32;35639;-79
2022/08/16 13:11:47;;;;;;;6.03;4.60;;;;;;;30.80;32.13;98947.94;4357757;32;33966;-78
2022/08/16 13:14:46;;;;;;;5.62;4.53;;;;;;;30.87;31.94;98956.91;4351968;32;34214;-79
2022/08/16 13:17:35;;;;;;;;;;;;;;;30.24;31.81;98952.50;4353154;32;34936;-79
2022/08/16 13:20:28;;;;;;;5.20;4.20;;;;;;;30.60;31.26;98942.66;4358995;32;34418;-78
2022/08/16 13:23:15;;;;;;;7.12;4.53;;;;;;;31.63;30.05;98946.06;4356674;32;35118;-77
2022/08/16 13:26:03;;;;;;;7.15;4.00;;;;;;;31.41;30.74;98943.38;4358718;32;35600;-78
2022/08/16 13:28:50;;;;;;;6.70;4.57;;;;;;;31.75;29.89;98930.97;4357798;32;33975;-79
2022/08/16 13:31:37;;;;;;;5.78;4.00;;;;;;;31.58;30.61;98932.53;4358660;32;34606;-78
2022/08/16 13:34:24;;;;;;;6.32;3.62;;;;;;;32.39;30.15;98937.78;4358604;32;34248;-78